Tropical Cyclones
[Index]
Main Index Home Page Stock Weather Photos Extreme Storms Discussion Storm News and Storm Chasing Reports Tropical Cyclones / Hurricanes / Typhoons Weather Data and Links Wild Fires / Bushfires Weather Observation Techniques Weather Picture Catalogue Tornado Pictures and Reports Stock Video Footage and DVDs for sale
Season 1997-1998 Tropical Cyclone ZUMAN Track Map
Season 1997-1998 Summaries (Operational Data): [AU] [SIO] [SPAC] [SH]
<<- Previous TC | 1997-1998 Season | Next TC ->>

click for intensity scale information  Lat/long Grid: Show Hide

 Date Labels: Show Hide

Operational Tropical Cyclone Data : JTWC Advisories

Name: ZUMAN
Number: 9831

29 Mar 1998 21:00 UTC to 06 Apr 1998 00:00 UTC

    date/time    lat    long     hPa   cat  kts
1998-03-29 21   13.7   171.0     998         25          
1998-03-30 00   14.0   170.9     998         25          
1998-03-30 06   13.9   170.3     996         30          
1998-03-30 12   13.9   169.8     990    1    40          
1998-03-30 18   13.9   169.2     987    1    45          
1998-03-31 00   14.0   168.7     980    2    55          
1998-03-31 06   14.0   168.1     975    2    60          
1998-03-31 12   14.4   167.6     970    3    65          
1998-03-31 18   14.9   167.1     960    3    75          
1998-04-01 00   15.3   166.5     955    3    80          
1998-04-01 06   15.6   166.0     955    3    80          
1998-04-01 12   15.5   165.5     955    3    80          
1998-04-01 18   15.7   165.2     955    3    80          
1998-04-02 00   15.8   164.7     955    3    80          
1998-04-02 06   15.9   164.2     955    3    80          
1998-04-02 12   15.9   163.5     955    3    80          
1998-04-02 18   16.0   163.0     955    3    80          
1998-04-03 00   15.5   162.8     955    3    80          
1998-04-03 06   15.6   162.3     965    3    70          
1998-04-03 12   15.8   161.8     965    3    70          
1998-04-03 18   16.0   161.3     975    2    60          
1998-04-04 00   16.6   161.4     980    2    55          
1998-04-04 06   16.9   161.1     985    2    50          
1998-04-04 12   17.5   162.5     987    2    50          
1998-04-04 18   19.0   163.6     985    2    50          
1998-04-05 00   19.5   164.0     985    2    50          
1998-04-05 06   20.1   164.9     987    1    45          
1998-04-05 12   20.6   166.2     987    1    45          
1998-04-05 18   22.0   168.0     990    1    40          
1998-04-06 00   24.0   169.0                 30          
Winds are 10-min average.

Tropical cyclone tracks developed by Michael Bath using operational warnings and advisories and Google Maps.


[Australian Severe Weather index] [Copyright Notice] [Email Contacts] [Search This Site] [Privacy Policy]
Document: tropical_cyclone_zuman.htm Updated: 4 September 2016